This is the latest recevied weather packets stored in our database for station/object G4GVZ-1. If no packets are shown the sender has not sent any weather packets the latest 10 day(s).
| Time | Temp. | Humidity | Pressure | Rain* | Wind** | Luminosity | Snow |
|---|---|---|---|---|---|---|---|
| 1778101248 | 8.89° C | 76% | 1014.3 hPa | 0 mm | - | - | - |
| 1778100348 | 9.44° C | 74% | 1014.4 hPa | 0 mm | - | - | - |
| 1778099447 | 10° C | 73% | 1014.2 hPa | 0 mm | - | - | - |
| 1778098547 | 10° C | 71% | 1013.8 hPa | 0 mm | - | - | - |
| 1778097647 | 10.56° C | 69% | 1013.7 hPa | 0 mm | - | - | - |
| 1778096747 | 10.56° C | 68% | 1013.7 hPa | 0 mm | - | - | - |
| 1778095847 | 11.11° C | 65% | 1013.4 hPa | 0 mm | - | - | - |
| 1778094946 | 11.67° C | 60% | 1013.4 hPa | 0 mm | - | - | - |
| 1778094046 | 12.22° C | 58% | 1013.3 hPa | 0 mm | - | - | - |
| 1778093149 | 12.22° C | 57% | 1013.3 hPa | 0 mm | - | - | - |
| 1778092249 | 12.78° C | 53% | 1013.3 hPa | 0 mm | - | - | - |
| 1778091349 | 13.33° C | 52% | 1013.1 hPa | 0 mm | - | - | - |
| 1778090448 | 13.33° C | 51% | 1013.1 hPa | 0 mm | - | - | - |
| 1778089548 | 13.33° C | 50% | 1013.1 hPa | 0 mm | - | - | - |
| 1778088648 | 13.33° C | 50% | 1013 hPa | 0 mm | - | - | - |
| 1778087748 | 13.89° C | 48% | 1012.9 hPa | 0 mm | - | - | - |
| 1778086847 | 14.44° C | 48% | 1012.8 hPa | 0 mm | - | - | - |
| 1778085947 | 14.44° C | 47% | 1012.8 hPa | 0 mm | - | - | - |
| 1778085049 | 13.89° C | 49% | 1012.8 hPa | 0 mm | - | - | - |
| 1778084149 | 13.89° C | 48% | 1012.8 hPa | 0 mm | - | - | - |
| 1778083249 | 14.44° C | 48% | 1012.9 hPa | 0 mm | - | - | - |
| 1778082348 | 15.56° C | 46% | 1012.7 hPa | 0 mm | - | - | - |
| 1778081448 | 15° C | 45% | 1012.9 hPa | 0 mm | - | - | - |
| 1778080548 | 15° C | 47% | 1013 hPa | 0 mm | - | - | - |
| 1778079650 | 13.89° C | 48% | 1013.1 hPa | 0 mm | - | - | - |
* Rain latest hour (hover to see other rain measurements)
** Current wind speed in m/s (hover to see current wind gust speed)